sensor_id;sensor_type;location;lat;lon;timestamp;P1;durP1;ratioP1;P2;durP2;ratioP2
9763;SDS011;4921;43.214;27.936;2022-09-16T00:00:32;8.77;;;5.37;;
9763;SDS011;4921;43.214;27.936;2022-09-16T00:03:01;12.20;;;5.00;;
9763;SDS011;4921;43.214;27.936;2022-09-16T00:05:28;9.30;;;5.03;;
9763;SDS011;4921;43.214;27.936;2022-09-16T00:07:55;6.87;;;4.50;;
9763;SDS011;4921;43.214;27.936;2022-09-16T00:10:22;9.57;;;5.27;;
9763;SDS011;4921;43.214;27.936;2022-09-16T00:12:49;9.53;;;4.80;;
9763;SDS011;4921;43.214;27.936;2022-09-16T00:15:16;6.03;;;4.80;;
9763;SDS011;4921;43.214;27.936;2022-09-16T00:17:43;10.70;;;5.10;;
9763;SDS011;4921;43.214;27.936;2022-09-16T00:20:12;7.37;;;4.33;;
9763;SDS011;4921;43.214;27.936;2022-09-16T00:22:39;4.57;;;3.90;;
9763;SDS011;4921;43.214;27.936;2022-09-16T00:25:06;7.53;;;4.60;;
9763;SDS011;4921;43.214;27.936;2022-09-16T00:27:33;11.63;;;4.37;;
9763;SDS011;4921;43.214;27.936;2022-09-16T00:30:00;9.63;;;4.30;;
9763;SDS011;4921;43.214;27.936;2022-09-16T00:32:27;9.93;;;4.23;;
9763;SDS011;4921;43.214;27.936;2022-09-16T00:34:54;8.27;;;4.43;;
9763;SDS011;4921;43.214;27.936;2022-09-16T00:37:23;7.37;;;4.30;;
9763;SDS011;4921;43.214;27.936;2022-09-16T00:39:49;10.03;;;4.53;;
9763;SDS011;4921;43.214;27.936;2022-09-16T00:42:17;5.07;;;3.80;;
9763;SDS011;4921;43.214;27.936;2022-09-16T00:44:52;5.13;;;3.80;;
9763;SDS011;4921;43.214;27.936;2022-09-16T00:47:23;7.70;;;3.57;;
9763;SDS011;4921;43.214;27.936;2022-09-16T00:49:54;7.23;;;4.33;;
9763;SDS011;4921;43.214;27.936;2022-09-16T00:52:27;7.70;;;4.20;;
9763;SDS011;4921;43.214;27.936;2022-09-16T00:54:55;6.80;;;3.80;;
9763;SDS011;4921;43.214;27.936;2022-09-16T00:57:22;4.37;;;3.50;;
9763;SDS011;4921;43.214;27.936;2022-09-16T00:59:50;4.73;;;3.47;;
9763;SDS011;4921;43.214;27.936;2022-09-16T01:02:19;8.77;;;3.73;;
9763;SDS011;4921;43.214;27.936;2022-09-16T01:04:53;6.23;;;3.77;;
9763;SDS011;4921;43.214;27.936;2022-09-16T01:07:28;4.50;;;3.50;;
9763;SDS011;4921;43.214;27.936;2022-09-16T01:09:58;5.73;;;3.60;;
9763;SDS011;4921;43.214;27.936;2022-09-16T01:12:25;6.43;;;3.33;;
9763;SDS011;4921;43.214;27.936;2022-09-16T01:14:55;9.17;;;4.00;;
9763;SDS011;4921;43.214;27.936;2022-09-16T01:17:27;5.20;;;3.70;;
9763;SDS011;4921;43.214;27.936;2022-09-16T01:20:20;8.27;;;3.77;;
9763;SDS011;4921;43.214;27.936;2022-09-16T01:23:14;5.03;;;3.70;;
9763;SDS011;4921;43.214;27.936;2022-09-16T01:26:00;3.87;;;3.30;;
9763;SDS011;4921;43.214;27.936;2022-09-16T01:28:51;4.90;;;3.40;;
9763;SDS011;4921;43.214;27.936;2022-09-16T01:31:35;5.77;;;4.10;;
9763;SDS011;4921;43.214;27.936;2022-09-16T01:34:10;5.87;;;4.27;;
9763;SDS011;4921;43.214;27.936;2022-09-16T01:36:47;4.00;;;3.60;;
9763;SDS011;4921;43.214;27.936;2022-09-16T01:39:23;5.63;;;3.77;;
9763;SDS011;4921;43.214;27.936;2022-09-16T01:42:00;4.47;;;4.00;;
9763;SDS011;4921;43.214;27.936;2022-09-16T01:44:46;10.37;;;4.43;;
9763;SDS011;4921;43.214;27.936;2022-09-16T01:47:24;4.30;;;4.00;;
9763;SDS011;4921;43.214;27.936;2022-09-16T01:50:01;9.37;;;4.77;;
9763;SDS011;4921;43.214;27.936;2022-09-16T01:52:35;6.37;;;4.23;;
9763;SDS011;4921;43.214;27.936;2022-09-16T01:55:07;9.13;;;4.43;;
9763;SDS011;4921;43.214;27.936;2022-09-16T01:57:39;6.53;;;3.97;;
9763;SDS011;4921;43.214;27.936;2022-09-16T02:00:14;6.33;;;3.87;;
9763;SDS011;4921;43.214;27.936;2022-09-16T02:02:44;7.60;;;4.13;;
9763;SDS011;4921;43.214;27.936;2022-09-16T02:05:15;4.33;;;3.93;;
9763;SDS011;4921;43.214;27.936;2022-09-16T02:07:46;6.17;;;4.10;;
9763;SDS011;4921;43.214;27.936;2022-09-16T02:10:19;7.87;;;4.10;;
9763;SDS011;4921;43.214;27.936;2022-09-16T02:12:50;6.87;;;4.00;;
9763;SDS011;4921;43.214;27.936;2022-09-16T02:15:20;4.30;;;3.90;;
9763;SDS011;4921;43.214;27.936;2022-09-16T02:17:51;6.43;;;3.70;;
9763;SDS011;4921;43.214;27.936;2022-09-16T02:20:24;5.90;;;4.10;;
9763;SDS011;4921;43.214;27.936;2022-09-16T02:22:56;5.00;;;4.27;;
9763;SDS011;4921;43.214;27.936;2022-09-16T02:25:27;7.67;;;4.20;;
9763;SDS011;4921;43.214;27.936;2022-09-16T02:27:58;6.47;;;4.67;;
9763;SDS011;4921;43.214;27.936;2022-09-16T02:30:31;5.90;;;4.27;;
9763;SDS011;4921;43.214;27.936;2022-09-16T02:33:01;7.03;;;4.37;;
9763;SDS011;4921;43.214;27.936;2022-09-16T02:35:32;7.87;;;4.30;;
9763;SDS011;4921;43.214;27.936;2022-09-16T02:38:02;6.87;;;4.10;;
9763;SDS011;4921;43.214;27.936;2022-09-16T02:40:35;4.40;;;4.00;;
9763;SDS011;4921;43.214;27.936;2022-09-16T02:43:11;4.87;;;4.20;;
9763;SDS011;4921;43.214;27.936;2022-09-16T02:45:41;7.10;;;4.00;;
9763;SDS011;4921;43.214;27.936;2022-09-16T02:48:18;5.53;;;4.27;;
9763;SDS011;4921;43.214;27.936;2022-09-16T02:50:51;7.10;;;4.20;;
9763;SDS011;4921;43.214;27.936;2022-09-16T02:53:26;8.63;;;4.27;;
9763;SDS011;4921;43.214;27.936;2022-09-16T02:56:06;12.00;;;4.50;;
9763;SDS011;4921;43.214;27.936;2022-09-16T02:58:38;4.10;;;3.77;;
9763;SDS011;4921;43.214;27.936;2022-09-16T03:01:05;5.73;;;3.70;;
9763;SDS011;4921;43.214;27.936;2022-09-16T03:03:34;4.10;;;3.70;;
9763;SDS011;4921;43.214;27.936;2022-09-16T03:06:17;7.10;;;3.40;;
9763;SDS011;4921;43.214;27.936;2022-09-16T03:08:46;5.77;;;4.20;;
9763;SDS011;4921;43.214;27.936;2022-09-16T03:11:17;5.57;;;4.10;;
9763;SDS011;4921;43.214;27.936;2022-09-16T03:14:00;9.00;;;4.20;;
9763;SDS011;4921;43.214;27.936;2022-09-16T03:16:41;7.27;;;4.47;;
9763;SDS011;4921;43.214;27.936;2022-09-16T03:19:18;6.10;;;3.80;;
9763;SDS011;4921;43.214;27.936;2022-09-16T03:21:53;7.17;;;4.63;;
9763;SDS011;4921;43.214;27.936;2022-09-16T03:24:28;4.53;;;4.07;;
9763;SDS011;4921;43.214;27.936;2022-09-16T03:27:07;7.20;;;4.50;;
9763;SDS011;4921;43.214;27.936;2022-09-16T03:29:37;5.33;;;4.20;;
9763;SDS011;4921;43.214;27.936;2022-09-16T03:32:11;10.67;;;6.03;;
9763;SDS011;4921;43.214;27.936;2022-09-16T03:35:01;10.30;;;4.70;;
9763;SDS011;4921;43.214;27.936;2022-09-16T03:37:33;5.83;;;4.50;;
9763;SDS011;4921;43.214;27.936;2022-09-16T03:40:03;9.43;;;4.73;;
9763;SDS011;4921;43.214;27.936;2022-09-16T03:42:33;8.93;;;4.47;;
9763;SDS011;4921;43.214;27.936;2022-09-16T03:45:00;9.07;;;5.10;;
9763;SDS011;4921;43.214;27.936;2022-09-16T03:47:27;7.73;;;4.23;;
9763;SDS011;4921;43.214;27.936;2022-09-16T03:49:54;8.43;;;5.00;;
9763;SDS011;4921;43.214;27.936;2022-09-16T03:52:22;8.23;;;4.90;;
9763;SDS011;4921;43.214;27.936;2022-09-16T03:54:49;7.23;;;4.37;;
9763;SDS011;4921;43.214;27.936;2022-09-16T03:57:16;10.50;;;5.00;;
9763;SDS011;4921;43.214;27.936;2022-09-16T03:59:43;9.57;;;4.37;;
9763;SDS011;4921;43.214;27.936;2022-09-16T04:02:10;11.40;;;4.73;;
9763;SDS011;4921;43.214;27.936;2022-09-16T04:04:37;9.20;;;4.40;;
9763;SDS011;4921;43.214;27.936;2022-09-16T04:07:04;8.03;;;4.60;;
9763;SDS011;4921;43.214;27.936;2022-09-16T04:09:32;10.80;;;4.57;;
9763;SDS011;4921;43.214;27.936;2022-09-16T04:12:01;6.60;;;4.50;;
9763;SDS011;4921;43.214;27.936;2022-09-16T04:14:29;8.93;;;4.80;;
9763;SDS011;4921;43.214;27.936;2022-09-16T04:16:56;9.63;;;4.90;;
9763;SDS011;4921;43.214;27.936;2022-09-16T04:19:23;8.17;;;4.60;;
9763;SDS011;4921;43.214;27.936;2022-09-16T04:21:50;14.63;;;5.23;;
9763;SDS011;4921;43.214;27.936;2022-09-16T04:24:16;11.87;;;5.23;;
9763;SDS011;4921;43.214;27.936;2022-09-16T04:26:45;12.07;;;5.73;;
9763;SDS011;4921;43.214;27.936;2022-09-16T04:29:12;8.10;;;5.70;;
9763;SDS011;4921;43.214;27.936;2022-09-16T04:31:39;12.93;;;6.30;;
9763;SDS011;4921;43.214;27.936;2022-09-16T04:34:05;10.83;;;6.20;;
9763;SDS011;4921;43.214;27.936;2022-09-16T04:36:32;8.10;;;6.60;;
9763;SDS011;4921;43.214;27.936;2022-09-16T04:38:59;11.67;;;7.90;;
9763;SDS011;4921;43.214;27.936;2022-09-16T04:41:26;11.50;;;7.40;;
9763;SDS011;4921;43.214;27.936;2022-09-16T04:43:55;10.67;;;7.27;;
9763;SDS011;4921;43.214;27.936;2022-09-16T04:46:23;13.23;;;7.83;;
9763;SDS011;4921;43.214;27.936;2022-09-16T04:48:51;14.70;;;8.50;;
9763;SDS011;4921;43.214;27.936;2022-09-16T04:51:18;12.03;;;8.10;;
9763;SDS011;4921;43.214;27.936;2022-09-16T04:53:46;13.13;;;9.13;;
9763;SDS011;4921;43.214;27.936;2022-09-16T04:56:15;13.03;;;9.37;;
9763;SDS011;4921;43.214;27.936;2022-09-16T04:58:43;15.50;;;9.53;;
9763;SDS011;4921;43.214;27.936;2022-09-16T05:01:14;17.43;;;9.60;;
9763;SDS011;4921;43.214;27.936;2022-09-16T05:03:43;16.70;;;9.77;;
9763;SDS011;4921;43.214;27.936;2022-09-16T05:06:12;17.07;;;10.07;;
9763;SDS011;4921;43.214;27.936;2022-09-16T05:08:40;18.30;;;10.97;;
9763;SDS011;4921;43.214;27.936;2022-09-16T05:11:07;21.07;;;11.77;;
9763;SDS011;4921;43.214;27.936;2022-09-16T05:13:35;16.07;;;11.03;;
9763;SDS011;4921;43.214;27.936;2022-09-16T05:16:03;19.20;;;10.70;;
9763;SDS011;4921;43.214;27.936;2022-09-16T05:18:33;21.00;;;11.47;;
9763;SDS011;4921;43.214;27.936;2022-09-16T05:21:01;22.07;;;11.03;;
9763;SDS011;4921;43.214;27.936;2022-09-16T05:23:30;20.33;;;10.77;;
9763;SDS011;4921;43.214;27.936;2022-09-16T05:26:00;25.90;;;10.43;;
9763;SDS011;4921;43.214;27.936;2022-09-16T05:28:29;20.23;;;10.53;;
9763;SDS011;4921;43.214;27.936;2022-09-16T05:31:05;21.97;;;10.37;;
9763;SDS011;4921;43.214;27.936;2022-09-16T05:33:35;21.13;;;9.80;;
9763;SDS011;4921;43.214;27.936;2022-09-16T05:36:05;9.00;;;8.20;;
9763;SDS011;4921;43.214;27.936;2022-09-16T05:38:33;14.10;;;8.03;;
9763;SDS011;4921;43.214;27.936;2022-09-16T05:43:45;13.00;;;6.63;;
9763;SDS011;4921;43.214;27.936;2022-09-16T05:46:15;11.70;;;6.60;;
9763;SDS011;4921;43.214;27.936;2022-09-16T05:48:45;16.43;;;6.93;;
9763;SDS011;4921;43.214;27.936;2022-09-16T05:51:13;15.77;;;8.57;;
9763;SDS011;4921;43.214;27.936;2022-09-16T05:53:42;21.47;;;9.63;;
9763;SDS011;4921;43.214;27.936;2022-09-16T05:56:10;12.30;;;6.60;;
9763;SDS011;4921;43.214;27.936;2022-09-16T05:58:38;9.03;;;5.53;;
9763;SDS011;4921;43.214;27.936;2022-09-16T06:01:06;16.67;;;7.13;;
9763;SDS011;4921;43.214;27.936;2022-09-16T06:03:35;12.43;;;6.37;;
9763;SDS011;4921;43.214;27.936;2022-09-16T06:06:05;12.03;;;5.80;;
9763;SDS011;4921;43.214;27.936;2022-09-16T06:08:37;10.97;;;5.57;;
9763;SDS011;4921;43.214;27.936;2022-09-16T06:11:05;10.87;;;5.37;;
9763;SDS011;4921;43.214;27.936;2022-09-16T06:13:33;7.60;;;4.77;;
9763;SDS011;4921;43.214;27.936;2022-09-16T06:16:01;11.37;;;6.17;;
9763;SDS011;4921;43.214;27.936;2022-09-16T06:18:29;13.53;;;6.07;;
9763;SDS011;4921;43.214;27.936;2022-09-16T06:20:56;11.27;;;4.87;;
9763;SDS011;4921;43.214;27.936;2022-09-16T06:23:25;19.73;;;8.13;;
9763;SDS011;4921;43.214;27.936;2022-09-16T06:25:57;13.80;;;5.90;;
9763;SDS011;4921;43.214;27.936;2022-09-16T06:28:25;15.13;;;5.67;;
9763;SDS011;4921;43.214;27.936;2022-09-16T06:30:59;15.27;;;6.43;;
9763;SDS011;4921;43.214;27.936;2022-09-16T06:33:27;16.27;;;5.77;;
9763;SDS011;4921;43.214;27.936;2022-09-16T06:35:54;11.60;;;5.67;;
9763;SDS011;4921;43.214;27.936;2022-09-16T06:38:22;13.07;;;5.57;;
9763;SDS011;4921;43.214;27.936;2022-09-16T06:40:50;14.80;;;5.93;;
9763;SDS011;4921;43.214;27.936;2022-09-16T06:43:17;13.97;;;6.17;;
9763;SDS011;4921;43.214;27.936;2022-09-16T06:45:44;22.57;;;6.73;;
9763;SDS011;4921;43.214;27.936;2022-09-16T06:48:11;16.90;;;5.63;;
9763;SDS011;4921;43.214;27.936;2022-09-16T06:50:38;20.03;;;5.60;;
9763;SDS011;4921;43.214;27.936;2022-09-16T06:53:05;18.70;;;5.70;;
9763;SDS011;4921;43.214;27.936;2022-09-16T06:55:32;20.07;;;5.33;;
9763;SDS011;4921;43.214;27.936;2022-09-16T06:58:00;19.20;;;5.57;;
9763;SDS011;4921;43.214;27.936;2022-09-16T07:00:27;15.57;;;5.03;;
9763;SDS011;4921;43.214;27.936;2022-09-16T07:02:54;12.87;;;4.47;;
9763;SDS011;4921;43.214;27.936;2022-09-16T07:05:21;14.13;;;4.27;;
9763;SDS011;4921;43.214;27.936;2022-09-16T07:07:47;12.57;;;4.27;;
9763;SDS011;4921;43.214;27.936;2022-09-16T07:10:14;17.30;;;4.30;;
9763;SDS011;4921;43.214;27.936;2022-09-16T07:12:41;10.90;;;4.10;;
9763;SDS011;4921;43.214;27.936;2022-09-16T07:15:10;13.97;;;3.93;;
9763;SDS011;4921;43.214;27.936;2022-09-16T07:17:37;14.50;;;4.40;;
9763;SDS011;4921;43.214;27.936;2022-09-16T07:20:04;15.93;;;4.60;;
9763;SDS011;4921;43.214;27.936;2022-09-16T07:22:31;19.17;;;4.80;;
9763;SDS011;4921;43.214;27.936;2022-09-16T07:24:58;12.83;;;3.97;;
9763;SDS011;4921;43.214;27.936;2022-09-16T07:27:25;24.37;;;4.43;;
9763;SDS011;4921;43.214;27.936;2022-09-16T07:29:52;17.40;;;4.27;;
9763;SDS011;4921;43.214;27.936;2022-09-16T07:32:22;25.83;;;4.23;;
9763;SDS011;4921;43.214;27.936;2022-09-16T07:34:49;29.53;;;5.50;;
9763;SDS011;4921;43.214;27.936;2022-09-16T07:37:16;14.70;;;3.97;;
9763;SDS011;4921;43.214;27.936;2022-09-16T07:39:44;21.20;;;4.20;;
9763;SDS011;4921;43.214;27.936;2022-09-16T07:42:11;22.67;;;4.27;;
9763;SDS011;4921;43.214;27.936;2022-09-16T07:44:37;13.53;;;3.50;;
9763;SDS011;4921;43.214;27.936;2022-09-16T07:47:04;21.23;;;4.40;;
9763;SDS011;4921;43.214;27.936;2022-09-16T07:49:33;19.30;;;4.30;;
9763;SDS011;4921;43.214;27.936;2022-09-16T07:52:00;9.97;;;4.07;;
9763;SDS011;4921;43.214;27.936;2022-09-16T07:54:27;19.20;;;4.57;;
9763;SDS011;4921;43.214;27.936;2022-09-16T07:56:54;16.57;;;4.20;;
9763;SDS011;4921;43.214;27.936;2022-09-16T07:59:21;11.13;;;3.70;;
9763;SDS011;4921;43.214;27.936;2022-09-16T08:01:48;22.53;;;4.97;;
9763;SDS011;4921;43.214;27.936;2022-09-16T08:04:15;24.03;;;4.77;;
9763;SDS011;4921;43.214;27.936;2022-09-16T08:06:44;10.77;;;4.77;;
9763;SDS011;4921;43.214;27.936;2022-09-16T08:09:12;20.15;;;4.65;;
9763;SDS011;4921;43.214;27.936;2022-09-16T08:11:39;21.92;;;5.03;;
9763;SDS011;4921;43.214;27.936;2022-09-16T08:14:06;17.80;;;5.07;;
9763;SDS011;4921;43.214;27.936;2022-09-16T08:16:32;15.30;;;4.55;;
9763;SDS011;4921;43.214;27.936;2022-09-16T08:18:59;18.98;;;4.88;;
9763;SDS011;4921;43.214;27.936;2022-09-16T08:21:26;19.80;;;4.27;;
9763;SDS011;4921;43.214;27.936;2022-09-16T08:23:56;12.27;;;4.00;;
9763;SDS011;4921;43.214;27.936;2022-09-16T08:26:23;12.70;;;3.90;;
9763;SDS011;4921;43.214;27.936;2022-09-16T08:28:51;11.32;;;3.33;;
9763;SDS011;4921;43.214;27.936;2022-09-16T08:31:18;14.10;;;3.22;;
9763;SDS011;4921;43.214;27.936;2022-09-16T08:33:45;20.58;;;4.25;;
9763;SDS011;4921;43.214;27.936;2022-09-16T08:36:13;16.38;;;4.90;;
9763;SDS011;4921;43.214;27.936;2022-09-16T08:38:42;25.85;;;4.97;;
9763;SDS011;4921;43.214;27.936;2022-09-16T08:41:25;14.77;;;3.45;;
9763;SDS011;4921;43.214;27.936;2022-09-16T08:44:04;14.60;;;3.35;;
9763;SDS011;4921;43.214;27.936;2022-09-16T08:46:39;14.73;;;3.78;;
9763;SDS011;4921;43.214;27.936;2022-09-16T08:49:16;11.20;;;3.58;;
9763;SDS011;4921;43.214;27.936;2022-09-16T08:51:50;14.75;;;4.03;;
9763;SDS011;4921;43.214;27.936;2022-09-16T08:54:23;16.08;;;4.30;;
9763;SDS011;4921;43.214;27.936;2022-09-16T08:56:57;18.63;;;4.10;;
9763;SDS011;4921;43.214;27.936;2022-09-16T08:59:27;16.67;;;4.13;;
9763;SDS011;4921;43.214;27.936;2022-09-16T09:02:00;15.50;;;3.85;;
9763;SDS011;4921;43.214;27.936;2022-09-16T09:04:42;16.88;;;3.90;;
9763;SDS011;4921;43.214;27.936;2022-09-16T09:07:11;16.13;;;3.88;;
9763;SDS011;4921;43.214;27.936;2022-09-16T09:09:49;10.88;;;3.67;;
9763;SDS011;4921;43.214;27.936;2022-09-16T09:12:28;14.95;;;3.47;;
9763;SDS011;4921;43.214;27.936;2022-09-16T09:15:11;15.15;;;4.10;;
9763;SDS011;4921;43.214;27.936;2022-09-16T09:17:51;19.20;;;4.50;;
9763;SDS011;4921;43.214;27.936;2022-09-16T09:20:26;19.30;;;4.18;;
9763;SDS011;4921;43.214;27.936;2022-09-16T09:23:08;22.90;;;4.35;;
9763;SDS011;4921;43.214;27.936;2022-09-16T09:25:46;16.45;;;3.58;;
9763;SDS011;4921;43.214;27.936;2022-09-16T09:28:40;20.90;;;3.78;;
9763;SDS011;4921;43.214;27.936;2022-09-16T09:31:20;14.10;;;3.42;;
9763;SDS011;4921;43.214;27.936;2022-09-16T09:33:57;15.90;;;3.83;;
9763;SDS011;4921;43.214;27.936;2022-09-16T09:36:39;12.32;;;3.75;;
9763;SDS011;4921;43.214;27.936;2022-09-16T09:42:13;13.57;;;3.22;;
9763;SDS011;4921;43.214;27.936;2022-09-16T09:44:49;14.00;;;3.20;;
9763;SDS011;4921;43.214;27.936;2022-09-16T09:47:20;7.30;;;3.08;;
9763;SDS011;4921;43.214;27.936;2022-09-16T09:49:50;18.15;;;3.97;;
9763;SDS011;4921;43.214;27.936;2022-09-16T09:55:43;10.63;;;3.17;;
9763;SDS011;4921;43.214;27.936;2022-09-16T09:58:14;14.25;;;3.70;;
9763;SDS011;4921;43.214;27.936;2022-09-16T10:00:49;15.95;;;3.38;;
9763;SDS011;4921;43.214;27.936;2022-09-16T10:03:17;13.23;;;4.03;;
9763;SDS011;4921;43.214;27.936;2022-09-16T10:05:45;14.52;;;4.40;;
9763;SDS011;4921;43.214;27.936;2022-09-16T10:08:15;13.23;;;3.72;;
9763;SDS011;4921;43.214;27.936;2022-09-16T10:10:50;16.20;;;3.45;;
9763;SDS011;4921;43.214;27.936;2022-09-16T10:13:19;17.90;;;3.60;;
9763;SDS011;4921;43.214;27.936;2022-09-16T10:15:48;22.65;;;3.95;;
9763;SDS011;4921;43.214;27.936;2022-09-16T10:18:21;19.15;;;4.47;;
9763;SDS011;4921;43.214;27.936;2022-09-16T10:21:01;12.95;;;3.38;;
9763;SDS011;4921;43.214;27.936;2022-09-16T10:23:30;21.55;;;7.10;;
9763;SDS011;4921;43.214;27.936;2022-09-16T10:26:15;14.77;;;3.17;;
9763;SDS011;4921;43.214;27.936;2022-09-16T10:28:59;15.45;;;5.80;;
9763;SDS011;4921;43.214;27.936;2022-09-16T10:31:33;12.95;;;4.90;;
9763;SDS011;4921;43.214;27.936;2022-09-16T10:34:02;15.23;;;4.28;;
9763;SDS011;4921;43.214;27.936;2022-09-16T10:36:31;18.45;;;3.80;;
9763;SDS011;4921;43.214;27.936;2022-09-16T10:39:00;15.93;;;3.58;;
9763;SDS011;4921;43.214;27.936;2022-09-16T10:41:31;14.90;;;3.35;;
9763;SDS011;4921;43.214;27.936;2022-09-16T10:44:00;13.45;;;3.55;;
9763;SDS011;4921;43.214;27.936;2022-09-16T10:46:30;14.02;;;3.28;;
9763;SDS011;4921;43.214;27.936;2022-09-16T10:48:58;12.18;;;3.03;;
9763;SDS011;4921;43.214;27.936;2022-09-16T10:51:28;13.00;;;3.38;;
9763;SDS011;4921;43.214;27.936;2022-09-16T10:53:58;12.70;;;4.38;;
9763;SDS011;4921;43.214;27.936;2022-09-16T10:56:26;12.65;;;3.90;;
9763;SDS011;4921;43.214;27.936;2022-09-16T10:59:02;20.67;;;4.78;;
9763;SDS011;4921;43.214;27.936;2022-09-16T11:01:33;21.05;;;11.15;;
9763;SDS011;4921;43.214;27.936;2022-09-16T11:07:23;9.75;;;2.42;;
9763;SDS011;4921;43.214;27.936;2022-09-16T11:10:03;14.88;;;4.22;;
9763;SDS011;4921;43.214;27.936;2022-09-16T11:12:44;9.88;;;2.65;;
9763;SDS011;4921;43.214;27.936;2022-09-16T11:15:26;13.70;;;3.10;;
9763;SDS011;4921;43.214;27.936;2022-09-16T11:18:06;11.13;;;2.97;;
9763;SDS011;4921;43.214;27.936;2022-09-16T11:20:47;11.93;;;2.67;;
9763;SDS011;4921;43.214;27.936;2022-09-16T11:23:38;16.63;;;3.47;;
9763;SDS011;4921;43.214;27.936;2022-09-16T11:26:28;16.88;;;3.00;;
9763;SDS011;4921;43.214;27.936;2022-09-16T11:29:11;13.25;;;3.45;;
9763;SDS011;4921;43.214;27.936;2022-09-16T11:31:48;10.30;;;3.00;;
9763;SDS011;4921;43.214;27.936;2022-09-16T11:34:28;11.10;;;3.20;;
9763;SDS011;4921;43.214;27.936;2022-09-16T11:37:10;10.35;;;2.85;;
9763;SDS011;4921;43.214;27.936;2022-09-16T11:39:50;11.40;;;2.78;;
9763;SDS011;4921;43.214;27.936;2022-09-16T11:42:34;11.98;;;3.47;;
9763;SDS011;4921;43.214;27.936;2022-09-16T11:45:20;13.05;;;3.15;;
9763;SDS011;4921;43.214;27.936;2022-09-16T11:47:59;8.68;;;2.90;;
9763;SDS011;4921;43.214;27.936;2022-09-16T11:50:44;15.00;;;3.58;;
9763;SDS011;4921;43.214;27.936;2022-09-16T11:53:25;11.88;;;2.58;;
9763;SDS011;4921;43.214;27.936;2022-09-16T11:56:16;9.82;;;2.97;;
9763;SDS011;4921;43.214;27.936;2022-09-16T11:58:47;8.38;;;2.90;;
9763;SDS011;4921;43.214;27.936;2022-09-16T12:01:24;11.95;;;2.88;;
9763;SDS011;4921;43.214;27.936;2022-09-16T12:03:57;8.20;;;2.67;;
9763;SDS011;4921;43.214;27.936;2022-09-16T12:06:33;10.30;;;3.55;;
9763;SDS011;4921;43.214;27.936;2022-09-16T12:09:05;14.75;;;3.40;;
9763;SDS011;4921;43.214;27.936;2022-09-16T12:11:38;12.30;;;3.85;;
9763;SDS011;4921;43.214;27.936;2022-09-16T12:14:11;17.15;;;4.32;;
9763;SDS011;4921;43.214;27.936;2022-09-16T12:16:41;13.80;;;3.90;;
9763;SDS011;4921;43.214;27.936;2022-09-16T12:19:13;12.70;;;4.28;;
9763;SDS011;4921;43.214;27.936;2022-09-16T12:21:47;16.00;;;4.75;;
9763;SDS011;4921;43.214;27.936;2022-09-16T12:24:19;13.07;;;3.92;;
9763;SDS011;4921;43.214;27.936;2022-09-16T12:26:53;14.70;;;3.65;;
9763;SDS011;4921;43.214;27.936;2022-09-16T12:29:26;11.95;;;3.63;;
9763;SDS011;4921;43.214;27.936;2022-09-16T12:32:00;11.13;;;3.58;;
9763;SDS011;4921;43.214;27.936;2022-09-16T12:34:32;10.93;;;3.65;;
9763;SDS011;4921;43.214;27.936;2022-09-16T12:37:06;11.02;;;3.40;;
9763;SDS011;4921;43.214;27.936;2022-09-16T12:39:46;8.85;;;3.30;;
9763;SDS011;4921;43.214;27.936;2022-09-16T12:42:29;17.67;;;3.40;;
9763;SDS011;4921;43.214;27.936;2022-09-16T12:48:22;15.73;;;3.15;;
9763;SDS011;4921;43.214;27.936;2022-09-16T12:51:24;11.55;;;3.45;;
9763;SDS011;4921;43.214;27.936;2022-09-16T12:54:23;8.07;;;3.03;;
9763;SDS011;4921;43.214;27.936;2022-09-16T12:57:12;10.32;;;2.97;;
9763;SDS011;4921;43.214;27.936;2022-09-16T12:59:56;8.20;;;2.85;;
9763;SDS011;4921;43.214;27.936;2022-09-16T13:02:33;8.50;;;3.15;;
9763;SDS011;4921;43.214;27.936;2022-09-16T13:05:08;12.88;;;3.33;;
9763;SDS011;4921;43.214;27.936;2022-09-16T13:07:39;8.40;;;2.92;;
9763;SDS011;4921;43.214;27.936;2022-09-16T13:10:15;14.45;;;3.25;;
9763;SDS011;4921;43.214;27.936;2022-09-16T13:12:48;10.93;;;3.65;;
9763;SDS011;4921;43.214;27.936;2022-09-16T13:15:22;9.32;;;3.10;;
9763;SDS011;4921;43.214;27.936;2022-09-16T13:17:51;8.95;;;2.75;;
9763;SDS011;4921;43.214;27.936;2022-09-16T13:20:19;9.75;;;3.10;;
9763;SDS011;4921;43.214;27.936;2022-09-16T13:22:55;8.98;;;3.13;;
9763;SDS011;4921;43.214;27.936;2022-09-16T13:25:30;11.23;;;2.90;;
9763;SDS011;4921;43.214;27.936;2022-09-16T13:28:00;15.48;;;3.47;;
9763;SDS011;4921;43.214;27.936;2022-09-16T13:30:33;12.60;;;2.83;;
9763;SDS011;4921;43.214;27.936;2022-09-16T13:33:02;9.60;;;2.80;;
9763;SDS011;4921;43.214;27.936;2022-09-16T13:35:48;14.73;;;3.17;;
9763;SDS011;4921;43.214;27.936;2022-09-16T13:38:36;14.55;;;3.28;;
9763;SDS011;4921;43.214;27.936;2022-09-16T13:41:05;12.55;;;2.85;;
9763;SDS011;4921;43.214;27.936;2022-09-16T13:43:36;13.38;;;3.08;;
9763;SDS011;4921;43.214;27.936;2022-09-16T13:46:24;10.23;;;2.63;;
9763;SDS011;4921;43.214;27.936;2022-09-16T13:48:55;11.52;;;2.90;;
9763;SDS011;4921;43.214;27.936;2022-09-16T13:51:37;9.90;;;2.72;;
9763;SDS011;4921;43.214;27.936;2022-09-16T13:54:16;13.38;;;2.80;;
9763;SDS011;4921;43.214;27.936;2022-09-16T13:57:07;9.63;;;2.75;;
9763;SDS011;4921;43.214;27.936;2022-09-16T14:05:54;11.13;;;3.60;;
9763;SDS011;4921;43.214;27.936;2022-09-16T14:08:38;5.18;;;3.20;;
9763;SDS011;4921;43.214;27.936;2022-09-16T14:11:12;10.02;;;3.50;;
9763;SDS011;4921;43.214;27.936;2022-09-16T14:13:48;11.63;;;3.90;;
9763;SDS011;4921;43.214;27.936;2022-09-16T14:16:19;8.75;;;3.55;;
9763;SDS011;4921;43.214;27.936;2022-09-16T14:18:52;6.63;;;3.60;;
9763;SDS011;4921;43.214;27.936;2022-09-16T14:21:23;9.48;;;3.30;;
9763;SDS011;4921;43.214;27.936;2022-09-16T14:23:51;11.23;;;3.73;;
9763;SDS011;4921;43.214;27.936;2022-09-16T14:26:18;12.13;;;3.60;;
9763;SDS011;4921;43.214;27.936;2022-09-16T14:28:47;6.70;;;3.57;;
9763;SDS011;4921;43.214;27.936;2022-09-16T14:31:16;5.63;;;3.20;;
9763;SDS011;4921;43.214;27.936;2022-09-16T14:33:47;5.90;;;3.07;;
9763;SDS011;4921;43.214;27.936;2022-09-16T14:36:18;9.30;;;3.30;;
9763;SDS011;4921;43.214;27.936;2022-09-16T14:38:52;10.47;;;3.47;;
9763;SDS011;4921;43.214;27.936;2022-09-16T14:41:23;6.60;;;3.30;;
9763;SDS011;4921;43.214;27.936;2022-09-16T14:43:55;7.47;;;3.30;;
9763;SDS011;4921;43.214;27.936;2022-09-16T14:46:27;8.17;;;3.33;;
9763;SDS011;4921;43.214;27.936;2022-09-16T14:48:54;9.43;;;3.23;;
9763;SDS011;4921;43.214;27.936;2022-09-16T14:51:22;7.53;;;3.40;;
9763;SDS011;4921;43.214;27.936;2022-09-16T14:53:55;5.13;;;3.20;;
9763;SDS011;4921;43.214;27.936;2022-09-16T14:56:23;6.53;;;3.20;;
9763;SDS011;4921;43.214;27.936;2022-09-16T14:58:50;9.10;;;3.20;;
9763;SDS011;4921;43.214;27.936;2022-09-16T15:01:21;8.60;;;3.50;;
9763;SDS011;4921;43.214;27.936;2022-09-16T15:03:52;12.97;;;3.80;;
9763;SDS011;4921;43.214;27.936;2022-09-16T15:06:26;8.67;;;3.63;;
9763;SDS011;4921;43.214;27.936;2022-09-16T15:08:56;7.90;;;3.40;;
9763;SDS011;4921;43.214;27.936;2022-09-16T15:11:30;10.43;;;4.10;;
9763;SDS011;4921;43.214;27.936;2022-09-16T15:14:00;5.53;;;2.93;;
9763;SDS011;4921;43.214;27.936;2022-09-16T15:16:32;6.07;;;3.13;;
9763;SDS011;4921;43.214;27.936;2022-09-16T15:19:05;4.93;;;2.80;;
9763;SDS011;4921;43.214;27.936;2022-09-16T15:21:32;17.67;;;4.03;;
9763;SDS011;4921;43.214;27.936;2022-09-16T15:24:02;13.23;;;4.47;;
9763;SDS011;4921;43.214;27.936;2022-09-16T15:26:38;12.70;;;4.40;;
9763;SDS011;4921;43.214;27.936;2022-09-16T15:29:12;14.60;;;4.50;;
9763;SDS011;4921;43.214;27.936;2022-09-16T15:31:55;11.90;;;4.07;;
9763;SDS011;4921;43.214;27.936;2022-09-16T15:34:40;8.30;;;3.50;;
9763;SDS011;4921;43.214;27.936;2022-09-16T15:39:55;10.10;;;3.87;;
9763;SDS011;4921;43.214;27.936;2022-09-16T15:42:34;11.60;;;3.60;;
9763;SDS011;4921;43.214;27.936;2022-09-16T15:45:03;7.50;;;3.40;;
9763;SDS011;4921;43.214;27.936;2022-09-16T15:47:48;8.70;;;3.37;;